createdAt,value
2022-10-04T00:01:58.206Z,10.46
2022-10-04T00:04:31.989Z,10.45
2022-10-04T00:07:06.631Z,10.50
2022-10-04T00:09:46.690Z,10.49
2022-10-04T00:12:24.206Z,10.47
2022-10-04T00:14:53.036Z,10.48
2022-10-04T00:17:28.852Z,10.38
2022-10-04T00:19:56.010Z,10.33
2022-10-04T00:22:33.175Z,10.33
2022-10-04T00:25:08.557Z,10.29
2022-10-04T00:27:36.620Z,10.29
2022-10-04T00:30:02.877Z,10.29
2022-10-04T00:32:39.016Z,10.26
2022-10-04T00:35:25.307Z,10.22
2022-10-04T00:38:00.851Z,10.19
2022-10-04T00:40:34.767Z,10.13
2022-10-04T00:43:38.710Z,10.13
2022-10-04T00:46:26.151Z,10.09
2022-10-04T00:48:58.878Z,9.97
2022-10-04T00:51:43.244Z,10.02
2022-10-04T00:54:12.716Z,10.00
2022-10-04T00:56:52.750Z,10.00
2022-10-04T00:59:28.496Z,9.93
2022-10-04T01:02:07.923Z,9.90
2022-10-04T01:04:46.448Z,9.88
2022-10-04T01:07:17.523Z,9.85
2022-10-04T01:09:55.968Z,9.85
2022-10-04T01:12:51.524Z,9.89
2022-10-04T01:15:42.987Z,9.86
2022-10-04T01:18:20.275Z,9.79
2022-10-04T01:20:57.090Z,9.75
2022-10-04T01:23:44.451Z,9.75
2022-10-04T01:26:29.522Z,9.77
2022-10-04T01:29:01.593Z,9.69
2022-10-04T01:31:29.530Z,9.66
2022-10-04T01:33:56.546Z,9.70
2022-10-04T01:36:23.444Z,9.64
2022-10-04T01:38:50.835Z,9.65
2022-10-04T01:41:49.119Z,9.65
2022-10-04T01:44:41.686Z,9.67
2022-10-04T01:47:41.213Z,9.64
2022-10-04T01:50:19.174Z,9.65
2022-10-04T01:52:53.590Z,9.68
2022-10-04T01:55:26.619Z,9.68
2022-10-04T01:58:00.698Z,9.63
2022-10-04T02:00:28.562Z,9.62
2022-10-04T02:03:17.517Z,9.63
2022-10-04T02:05:51.978Z,9.64
2022-10-04T02:08:25.590Z,9.61
2022-10-04T02:10:54.513Z,9.64
2022-10-04T02:13:24.247Z,9.67
2022-10-04T02:15:50.832Z,9.65
2022-10-04T02:18:20.628Z,9.64
2022-10-04T02:20:49.484Z,9.59
2022-10-04T02:23:19.409Z,9.60
2022-10-04T02:25:46.210Z,9.58
2022-10-04T02:28:15.373Z,9.48
2022-10-04T02:31:09.062Z,9.46
2022-10-04T02:33:43.718Z,9.47
2022-10-04T02:36:10.700Z,9.46
2022-10-04T02:38:44.258Z,9.47
2022-10-04T02:41:26.086Z,9.45
2022-10-04T02:44:03.176Z,9.47
2022-10-04T02:46:47.538Z,9.54
2022-10-04T02:49:26.846Z,9.53
2022-10-04T02:52:21.480Z,9.56
2022-10-04T02:55:16.695Z,9.57
2022-10-04T02:57:44.277Z,9.62
2022-10-04T03:00:19.764Z,9.61
2022-10-04T03:03:11.016Z,9.57
2022-10-04T03:05:38.641Z,9.55
2022-10-04T03:08:05.959Z,9.59
2022-10-04T03:10:32.933Z,9.55
2022-10-04T03:12:59.341Z,9.49
2022-10-04T03:15:25.715Z,9.54
2022-10-04T03:17:52.271Z,9.64
2022-10-04T03:20:21.239Z,9.61
2022-10-04T03:22:52.450Z,9.50
2022-10-04T03:25:24.898Z,9.46
2022-10-04T03:27:51.971Z,9.49
2022-10-04T03:30:21.672Z,9.49
2022-10-04T03:32:49.443Z,9.51
2022-10-04T03:35:34.577Z,9.56
2022-10-04T03:38:04.921Z,9.61
2022-10-04T03:40:33.048Z,9.56
2022-10-04T03:43:02.356Z,9.59
2022-10-04T03:45:29.711Z,9.61
2022-10-04T03:48:02.254Z,9.57
2022-10-04T03:50:34.168Z,9.56
2022-10-04T03:53:07.140Z,9.52
2022-10-04T03:55:38.640Z,9.55
2022-10-04T03:58:06.512Z,9.54
2022-10-04T04:00:38.377Z,9.54
2022-10-04T04:03:10.100Z,9.57
2022-10-04T04:05:50.950Z,9.67
2022-10-04T04:08:33.676Z,9.63
2022-10-04T04:11:04.336Z,9.60
2022-10-04T04:14:12.340Z,9.56
2022-10-04T04:16:38.970Z,9.56
2022-10-04T04:19:13.205Z,9.57
2022-10-04T04:21:41.096Z,9.58
2022-10-04T04:24:21.974Z,9.57
2022-10-04T04:27:03.116Z,9.54
2022-10-04T04:29:48.444Z,9.53
2022-10-04T04:32:44.866Z,9.50
2022-10-04T04:35:31.071Z,9.54
2022-10-04T04:38:24.508Z,9.50
2022-10-04T04:40:55.525Z,9.51
2022-10-04T04:43:25.658Z,9.39
2022-10-04T04:46:15.082Z,9.49
2022-10-04T04:48:43.201Z,9.45
2022-10-04T04:51:20.465Z,9.49
2022-10-04T04:53:48.032Z,9.49
2022-10-04T04:56:19.233Z,9.46
2022-10-04T04:58:48.711Z,9.49
2022-10-04T05:01:23.331Z,9.47
2022-10-04T05:04:17.472Z,9.49
2022-10-04T05:06:46.514Z,9.40
2022-10-04T05:09:26.134Z,9.47
2022-10-04T05:11:57.945Z,9.51
2022-10-04T05:14:24.625Z,9.57
2022-10-04T05:16:55.513Z,9.65
2022-10-04T05:19:28.271Z,9.62
2022-10-04T05:21:56.903Z,9.63
2022-10-04T05:24:28.956Z,9.61
2022-10-04T05:26:59.489Z,9.60
2022-10-04T05:29:34.511Z,9.54
2022-10-04T05:32:11.547Z,9.58
2022-10-04T05:34:40.102Z,9.63
2022-10-04T05:37:20.356Z,9.55
2022-10-04T05:40:04.813Z,9.57
2022-10-04T05:42:44.432Z,9.59
2022-10-04T05:45:31.076Z,9.63
2022-10-04T05:48:01.114Z,9.58
2022-10-04T05:50:41.464Z,9.60
2022-10-04T05:53:35.512Z,9.61
2022-10-04T05:56:29.912Z,9.59
2022-10-04T05:59:24.413Z,9.53
2022-10-04T06:02:02.640Z,9.59
2022-10-04T06:04:45.325Z,9.62
2022-10-04T06:07:16.388Z,9.64
2022-10-04T06:09:56.491Z,9.61
2022-10-04T06:12:30.058Z,9.67
2022-10-04T06:15:09.746Z,9.65
2022-10-04T06:17:56.176Z,9.68
2022-10-04T06:20:44.405Z,9.69
2022-10-04T06:23:16.817Z,9.73
2022-10-04T06:25:49.692Z,9.74
2022-10-04T06:28:51.390Z,9.66
2022-10-04T06:31:49.443Z,9.62
2022-10-04T06:34:31.037Z,9.57
2022-10-04T06:37:16.201Z,9.51
2022-10-04T06:39:57.774Z,9.48
2022-10-04T06:42:55.144Z,9.47
2022-10-04T06:45:40.081Z,9.49
2022-10-04T06:48:28.699Z,9.48
2022-10-04T06:51:18.067Z,9.47
2022-10-04T06:54:12.336Z,9.51
2022-10-04T06:56:58.442Z,9.53
2022-10-04T06:59:44.894Z,9.61
2022-10-04T07:02:29.237Z,9.69
2022-10-04T07:05:09.396Z,9.89
2022-10-04T07:07:39.524Z,9.93
2022-10-04T07:10:31.265Z,10.07
2022-10-04T07:13:03.659Z,10.14
2022-10-04T07:15:50.823Z,10.10
2022-10-04T07:18:25.054Z,10.19
2022-10-04T07:21:01.610Z,10.27
2022-10-04T07:23:44.994Z,10.37
2022-10-04T07:26:23.535Z,10.41
2022-10-04T07:29:10.499Z,10.48
2022-10-04T07:31:38.667Z,10.52
2022-10-04T07:34:17.146Z,10.59
2022-10-04T07:36:48.927Z,10.66
2022-10-04T07:39:18.932Z,10.73
2022-10-04T07:41:50.289Z,10.77
2022-10-04T07:44:27.380Z,10.81
2022-10-04T07:47:12.927Z,10.83
2022-10-04T07:49:40.654Z,10.92
2022-10-04T07:52:32.735Z,10.92
2022-10-04T07:55:07.766Z,11.01
2022-10-04T07:58:09.406Z,11.09
2022-10-04T08:01:02.372Z,11.12
2022-10-04T08:03:50.649Z,11.31
2022-10-04T08:06:37.656Z,11.27
2022-10-04T08:09:30.372Z,11.36
2022-10-04T08:12:11.188Z,11.37
2022-10-04T08:14:43.677Z,11.42
2022-10-04T08:17:15.333Z,11.36
2022-10-04T08:20:07.041Z,11.48
2022-10-04T08:22:40.804Z,11.65
2022-10-04T08:25:42.398Z,11.63
2022-10-04T08:28:36.793Z,11.73
2022-10-04T08:31:39.289Z,11.75
2022-10-04T08:34:31.718Z,11.77
2022-10-04T08:37:19.802Z,11.76
2022-10-04T08:40:33.674Z,11.81
2022-10-04T08:43:38.148Z,11.93
2022-10-04T08:46:25.903Z,11.96
2022-10-04T08:49:08.964Z,12.10
2022-10-04T08:52:09.492Z,12.09
2022-10-04T08:54:45.218Z,12.26
2022-10-04T08:57:15.881Z,12.46
2022-10-04T08:59:57.949Z,12.52
2022-10-04T09:02:24.289Z,12.54
2022-10-04T09:05:33.871Z,12.60
2022-10-04T09:08:38.126Z,12.67
2022-10-04T09:11:10.367Z,12.76
2022-10-04T09:14:00.953Z,12.73
2022-10-04T09:16:56.568Z,12.78
2022-10-04T09:19:34.022Z,12.74
2022-10-04T09:22:16.815Z,12.80
2022-10-04T09:25:20.308Z,12.91
2022-10-04T09:28:17.828Z,12.85
2022-10-04T09:31:00.393Z,12.94
2022-10-04T09:33:43.288Z,12.93
2022-10-04T09:36:32.682Z,13.03
2022-10-04T09:39:31.230Z,13.07
2022-10-04T09:42:26.367Z,13.19
2022-10-04T09:45:06.130Z,13.30
2022-10-04T09:47:40.880Z,13.17
2022-10-04T09:50:26.715Z,13.29
2022-10-04T09:53:20.368Z,13.33
2022-10-04T09:56:11.225Z,13.48
2022-10-04T09:59:14.640Z,13.72
2022-10-04T10:02:28.992Z,13.79
2022-10-04T10:05:24.870Z,13.63
2022-10-04T10:08:11.000Z,13.63
2022-10-04T10:11:25.857Z,13.50
2022-10-04T10:14:23.233Z,13.54
2022-10-04T10:17:37.785Z,13.40
2022-10-04T10:20:40.798Z,13.58
2022-10-04T10:23:45.283Z,13.73
2022-10-04T10:26:32.830Z,13.82
2022-10-04T10:29:04.391Z,13.86
2022-10-04T10:31:51.270Z,13.78
2022-10-04T10:34:36.340Z,13.89
2022-10-04T10:37:35.619Z,14.05
2022-10-04T10:40:23.653Z,14.24
2022-10-04T10:43:04.024Z,14.34
2022-10-04T10:45:38.016Z,14.42
2022-10-04T10:48:43.827Z,14.58
2022-10-04T10:51:18.454Z,14.70
2022-10-04T10:54:18.145Z,14.72
2022-10-04T10:56:56.570Z,14.74
2022-10-04T11:00:12.804Z,14.87
2022-10-04T11:03:13.032Z,14.99
2022-10-04T11:06:15.491Z,15.07
2022-10-04T11:09:20.387Z,15.22
2022-10-04T11:12:05.557Z,14.95
2022-10-04T11:15:25.926Z,15.08
2022-10-04T11:18:46.345Z,14.77
2022-10-04T11:21:21.718Z,14.95
2022-10-04T11:23:59.346Z,15.02
2022-10-04T11:27:03.914Z,15.35
2022-10-04T11:29:35.992Z,15.42
2022-10-04T11:32:02.265Z,15.44
2022-10-04T11:34:59.471Z,15.46
2022-10-04T11:37:53.585Z,15.67
2022-10-04T11:40:47.961Z,15.98
2022-10-04T11:43:52.447Z,16.05
2022-10-04T11:46:29.547Z,16.09
2022-10-04T11:49:05.984Z,15.87
2022-10-04T11:52:04.513Z,15.99
2022-10-04T11:55:01.823Z,15.91
2022-10-04T11:57:40.540Z,15.66
2022-10-04T12:00:11.680Z,15.60
2022-10-04T12:03:13.672Z,15.62
2022-10-04T12:06:23.304Z,15.76
2022-10-04T12:09:31.723Z,15.91
2022-10-04T12:12:39.480Z,15.84
2022-10-04T12:15:38.367Z,15.81
2022-10-04T12:18:28.377Z,15.72
2022-10-04T12:21:06.976Z,15.98
2022-10-04T12:24:05.306Z,16.03
2022-10-04T12:26:54.812Z,16.22
2022-10-04T12:30:00.042Z,16.18
2022-10-04T12:32:32.064Z,16.21
2022-10-04T12:35:08.866Z,16.30
2022-10-04T12:37:56.939Z,16.16
2022-10-04T12:40:47.247Z,16.33
2022-10-04T12:43:14.687Z,16.36
2022-10-04T12:46:07.042Z,16.41
2022-10-04T12:48:47.355Z,16.33
2022-10-04T12:51:42.510Z,16.30
2022-10-04T12:54:31.902Z,16.55
2022-10-04T12:57:13.395Z,16.74
2022-10-04T12:59:48.747Z,17.03
2022-10-04T13:02:26.817Z,16.93
2022-10-04T13:05:01.571Z,16.78
2022-10-04T13:07:51.222Z,16.60
2022-10-04T13:10:44.385Z,16.65
2022-10-04T13:13:29.250Z,16.68
2022-10-04T13:19:19.395Z,16.68
2022-10-04T13:22:55.469Z,16.79
2022-10-04T13:25:31.740Z,16.63
2022-10-04T13:28:08.180Z,16.53
2022-10-04T13:30:43.433Z,16.47
2022-10-04T13:33:09.884Z,16.47
2022-10-04T13:36:08.336Z,16.69
2022-10-04T13:38:40.431Z,16.66
2022-10-04T13:41:15.498Z,16.64
2022-10-04T13:44:10.296Z,16.50
2022-10-04T13:47:17.562Z,16.72
2022-10-04T13:50:15.034Z,16.91
2022-10-04T13:53:23.356Z,16.82
2022-10-04T13:56:26.758Z,16.76
2022-10-04T13:58:56.109Z,16.49
2022-10-04T14:01:31.206Z,16.46
2022-10-04T14:04:11.786Z,16.48
2022-10-04T14:07:02.989Z,16.50
2022-10-04T14:10:23.532Z,16.65
2022-10-04T14:13:07.523Z,16.57
2022-10-04T14:16:05.723Z,16.57
2022-10-04T14:18:54.595Z,16.54
2022-10-04T14:21:59.956Z,16.56
2022-10-04T14:24:35.338Z,16.44
2022-10-04T14:27:22.355Z,16.39
2022-10-04T14:30:07.922Z,16.27
2022-10-04T14:33:07.590Z,16.33
2022-10-04T14:35:41.435Z,16.29
2022-10-04T14:38:38.915Z,16.35
2022-10-04T14:41:31.667Z,16.39
2022-10-04T14:44:23.359Z,16.32
2022-10-04T14:47:05.796Z,16.45
2022-10-04T14:50:01.135Z,16.61
2022-10-04T14:52:48.175Z,16.47
2022-10-04T14:55:49.547Z,16.37
2022-10-04T14:58:16.160Z,16.24
2022-10-04T15:01:20.421Z,16.24
2022-10-04T15:04:06.942Z,16.21
2022-10-04T15:06:43.233Z,16.19
2022-10-04T15:09:52.109Z,16.21
2022-10-04T15:12:51.977Z,16.13
2022-10-04T15:15:31.777Z,16.15
2022-10-04T15:18:04.185Z,16.14
2022-10-04T15:20:55.799Z,16.10
2022-10-04T15:23:38.166Z,16.04
2022-10-04T15:26:07.035Z,15.92
2022-10-04T15:28:50.357Z,15.97
2022-10-04T15:31:35.027Z,15.96
2022-10-04T15:34:01.414Z,15.82
2022-10-04T15:36:51.711Z,15.77
2022-10-04T15:39:33.650Z,15.84
2022-10-04T15:42:11.702Z,15.70
2022-10-04T15:45:04.691Z,15.66
2022-10-04T15:47:51.278Z,15.62
2022-10-04T15:50:26.891Z,15.53
2022-10-04T15:53:10.418Z,15.61
2022-10-04T15:55:36.697Z,15.54
2022-10-04T15:58:24.791Z,15.43
2022-10-04T16:01:13.042Z,15.48
2022-10-04T16:03:50.296Z,15.23
2022-10-04T16:06:27.858Z,15.28
2022-10-04T16:09:17.111Z,15.24
2022-10-04T16:12:32.283Z,15.19
2022-10-04T16:15:12.743Z,15.03
2022-10-04T16:17:58.657Z,14.90
2022-10-04T16:20:59.657Z,14.83
2022-10-04T16:23:31.741Z,14.77
2022-10-04T16:26:10.884Z,14.70
2022-10-04T16:28:51.420Z,14.56
2022-10-04T16:31:39.197Z,14.47
2022-10-04T16:34:07.066Z,14.41
2022-10-04T16:36:45.474Z,14.30
2022-10-04T16:39:31.794Z,14.13
2022-10-04T16:42:03.827Z,13.94
2022-10-04T16:44:47.976Z,13.80
2022-10-04T16:47:34.763Z,13.73
2022-10-04T16:50:04.696Z,13.68
2022-10-04T16:52:58.827Z,13.66
2022-10-04T16:55:28.330Z,13.44
2022-10-04T16:58:29.486Z,13.31
2022-10-04T17:01:23.840Z,13.21
2022-10-04T17:04:05.483Z,12.96
2022-10-04T17:06:52.479Z,12.93
2022-10-04T17:10:12.563Z,12.76
2022-10-04T17:13:17.685Z,12.62
2022-10-04T17:16:14.563Z,12.56
2022-10-04T17:19:07.959Z,12.60
2022-10-04T17:21:43.172Z,12.57
2022-10-04T17:24:20.961Z,12.58
2022-10-04T17:27:12.915Z,12.51
2022-10-04T17:30:18.242Z,12.44
2022-10-04T17:33:06.117Z,12.33
2022-10-04T17:36:20.066Z,12.25
2022-10-04T17:38:59.952Z,12.23
2022-10-04T17:42:02.900Z,12.21
2022-10-04T17:45:07.645Z,12.22
2022-10-04T17:47:57.810Z,12.22
2022-10-04T17:51:05.016Z,12.19
2022-10-04T17:53:54.376Z,12.16
2022-10-04T17:56:42.592Z,12.09
2022-10-04T17:59:18.020Z,12.09
2022-10-04T18:01:49.294Z,12.05
2022-10-04T18:04:27.890Z,12.00
2022-10-04T18:07:01.867Z,11.95
2022-10-04T18:09:33.861Z,11.93
2022-10-04T18:12:05.955Z,11.85
2022-10-04T18:14:35.159Z,11.82
2022-10-04T18:17:09.201Z,11.79
2022-10-04T18:19:49.229Z,11.73
2022-10-04T18:22:21.595Z,11.67
2022-10-04T18:25:09.839Z,11.70
2022-10-04T18:27:49.102Z,11.70
2022-10-04T18:30:18.959Z,11.72
2022-10-04T18:32:57.241Z,11.70
2022-10-04T18:35:27.255Z,11.64
2022-10-04T18:38:11.771Z,11.57
2022-10-04T18:40:43.281Z,11.53
2022-10-04T18:43:40.159Z,11.49
2022-10-04T18:46:26.854Z,11.49
2022-10-04T18:49:13.366Z,11.50
2022-10-04T18:52:01.494Z,11.34
2022-10-04T18:55:18.266Z,11.35
2022-10-04T18:58:17.702Z,11.35
2022-10-04T19:01:12.254Z,11.40
2022-10-04T19:03:52.793Z,11.41
2022-10-04T19:06:27.161Z,11.45
2022-10-04T19:09:41.547Z,11.43
2022-10-04T19:12:36.614Z,11.47
2022-10-04T19:15:15.212Z,11.46
2022-10-04T19:17:49.836Z,11.44
2022-10-04T19:20:26.259Z,11.44
2022-10-04T19:23:34.935Z,11.44
2022-10-04T19:26:31.264Z,11.47
2022-10-04T19:29:08.792Z,11.50
2022-10-04T19:31:54.204Z,11.37
2022-10-04T19:34:32.854Z,11.33
2022-10-04T19:37:06.901Z,11.39
2022-10-04T19:40:07.546Z,11.44
2022-10-04T19:43:07.764Z,11.38
2022-10-04T19:46:11.606Z,11.49
2022-10-04T19:48:49.806Z,11.42
2022-10-04T19:51:38.175Z,11.44
2022-10-04T19:54:15.634Z,11.43
2022-10-04T19:56:47.137Z,11.43
2022-10-04T19:59:22.871Z,11.48
2022-10-04T20:01:52.970Z,11.47
2022-10-04T20:04:37.942Z,11.43
2022-10-04T20:07:18.321Z,11.46
2022-10-04T20:09:47.717Z,11.45
2022-10-04T20:12:37.355Z,11.47
2022-10-04T20:15:16.804Z,11.36
2022-10-04T20:17:48.146Z,11.33
2022-10-04T20:20:43.343Z,11.24
2022-10-04T20:23:10.547Z,11.23
2022-10-04T20:25:45.907Z,11.10
2022-10-04T20:28:32.330Z,11.12
2022-10-04T20:31:02.120Z,11.14
2022-10-04T20:33:34.284Z,11.14
2022-10-04T20:36:02.505Z,11.11
2022-10-04T20:38:52.408Z,11.08
2022-10-04T20:41:27.781Z,10.98
2022-10-04T20:43:59.036Z,10.97
2022-10-04T20:46:27.091Z,10.97
2022-10-04T20:48:54.169Z,10.91
2022-10-04T20:51:22.615Z,10.91
2022-10-04T20:53:51.999Z,10.94
2022-10-04T20:56:24.308Z,10.98
2022-10-04T20:58:52.167Z,11.06
2022-10-04T21:01:41.337Z,11.06
2022-10-04T21:04:26.416Z,11.23
2022-10-04T21:06:53.470Z,11.26
2022-10-04T21:09:20.220Z,11.24
2022-10-04T21:11:50.444Z,11.20
2022-10-04T21:14:24.736Z,11.22
2022-10-04T21:16:55.599Z,11.18
2022-10-04T21:19:35.477Z,11.21
2022-10-04T21:22:06.882Z,11.21
2022-10-04T21:24:43.177Z,11.26
2022-10-04T21:27:12.595Z,11.30
2022-10-04T21:29:39.599Z,11.31
2022-10-04T21:32:06.141Z,11.32
2022-10-04T21:34:52.574Z,11.33
2022-10-04T21:37:20.519Z,11.36
2022-10-04T21:39:46.963Z,11.43
2022-10-04T21:42:13.350Z,11.43
2022-10-04T21:44:39.727Z,11.42
2022-10-04T21:47:06.062Z,11.45
2022-10-04T21:49:32.388Z,11.45
2022-10-04T21:51:58.752Z,11.50
2022-10-04T21:54:25.028Z,11.49
2022-10-04T21:56:51.307Z,11.48
2022-10-04T21:59:17.592Z,11.39
2022-10-04T22:01:43.888Z,11.33
2022-10-04T22:04:10.629Z,11.20
2022-10-04T22:06:37.074Z,11.21
2022-10-04T22:09:03.894Z,11.21
2022-10-04T22:11:30.561Z,11.21
2022-10-04T22:13:56.845Z,11.30
2022-10-04T22:16:23.188Z,11.22
2022-10-04T22:18:49.623Z,11.23
2022-10-04T22:21:16.203Z,11.17
2022-10-04T22:23:43.812Z,11.14
2022-10-04T22:26:13.064Z,11.17
2022-10-04T22:28:44.959Z,11.20
2022-10-04T22:31:13.390Z,11.22
2022-10-04T22:33:41.891Z,11.27
2022-10-04T22:36:20.203Z,11.30
2022-10-04T22:38:54.522Z,11.30
2022-10-04T22:41:20.918Z,11.27
2022-10-04T22:43:49.510Z,11.23
2022-10-04T22:46:18.214Z,11.33
2022-10-04T22:48:46.602Z,11.35
2022-10-04T22:51:13.586Z,11.33
2022-10-04T22:53:44.961Z,11.33
2022-10-04T22:56:15.604Z,11.28
2022-10-04T22:58:42.578Z,11.27
2022-10-04T23:01:13.248Z,11.27
2022-10-04T23:03:39.588Z,11.25
2022-10-04T23:06:12.459Z,11.19
2022-10-04T23:08:39.164Z,11.19
2022-10-04T23:11:05.620Z,11.22
2022-10-04T23:13:31.965Z,11.05
2022-10-04T23:16:01.627Z,11.12
2022-10-04T23:18:29.126Z,11.22
2022-10-04T23:21:01.007Z,11.20
2022-10-04T23:23:30.305Z,11.09
2022-10-04T23:25:56.685Z,11.06
2022-10-04T23:28:24.080Z,11.12
2022-10-04T23:31:20.685Z,11.10
2022-10-04T23:33:47.065Z,10.95
2022-10-04T23:36:15.147Z,11.02
2022-10-04T23:39:12.890Z,10.99
2022-10-04T23:41:39.424Z,11.01
2022-10-04T23:44:13.130Z,10.99
2022-10-04T23:46:39.570Z,10.92
2022-10-04T23:49:09.195Z,11.02
2022-10-04T23:51:35.776Z,11.00
2022-10-04T23:54:02.054Z,10.96
2022-10-04T23:56:29.312Z,10.95
2022-10-04T23:58:58.665Z,10.91
